sensor_id;sensor_type;location;lat;lon;timestamp;temperature;humidity
37938;DHT22;23763;48.130;11.602;2023-07-31T00:01:20;18.10;99.90
37938;DHT22;23763;48.130;11.602;2023-07-31T00:03:46;18.10;99.90
37938;DHT22;23763;48.130;11.602;2023-07-31T00:06:12;18.10;99.90
37938;DHT22;23763;48.130;11.602;2023-07-31T00:08:38;18.00;99.90
37938;DHT22;23763;48.130;11.602;2023-07-31T00:11:03;17.90;99.90
37938;DHT22;23763;48.130;11.602;2023-07-31T00:13:29;17.90;99.90
37938;DHT22;23763;48.130;11.602;2023-07-31T00:15:55;17.80;99.90
37938;DHT22;23763;48.130;11.602;2023-07-31T00:18:20;17.80;99.90
37938;DHT22;23763;48.130;11.602;2023-07-31T00:20:46;17.80;99.90
37938;DHT22;23763;48.130;11.602;2023-07-31T00:23:12;17.80;99.90
37938;DHT22;23763;48.130;11.602;2023-07-31T00:25:37;17.70;99.90
37938;DHT22;23763;48.130;11.602;2023-07-31T00:28:03;17.70;99.90
37938;DHT22;23763;48.130;11.602;2023-07-31T00:30:29;17.70;99.90
37938;DHT22;23763;48.130;11.602;2023-07-31T00:32:54;17.80;99.90
37938;DHT22;23763;48.130;11.602;2023-07-31T00:35:20;17.80;99.90
37938;DHT22;23763;48.130;11.602;2023-07-31T00:37:45;17.80;99.90
37938;DHT22;23763;48.130;11.602;2023-07-31T00:40:11;17.80;99.90
37938;DHT22;23763;48.130;11.602;2023-07-31T00:42:36;17.80;99.90
37938;DHT22;23763;48.130;11.602;2023-07-31T00:45:02;17.80;99.90
37938;DHT22;23763;48.130;11.602;2023-07-31T00:47:28;17.80;99.90
37938;DHT22;23763;48.130;11.602;2023-07-31T00:49:54;17.80;99.90
37938;DHT22;23763;48.130;11.602;2023-07-31T00:52:20;17.70;99.90
37938;DHT22;23763;48.130;11.602;2023-07-31T00:54:46;17.60;99.90
37938;DHT22;23763;48.130;11.602;2023-07-31T00:57:12;17.60;99.90
37938;DHT22;23763;48.130;11.602;2023-07-31T00:59:37;17.50;99.90
37938;DHT22;23763;48.130;11.602;2023-07-31T01:02:03;17.50;99.90
37938;DHT22;23763;48.130;11.602;2023-07-31T01:04:29;17.50;99.90
37938;DHT22;23763;48.130;11.602;2023-07-31T01:07:01;17.50;99.90
37938;DHT22;23763;48.130;11.602;2023-07-31T01:10:11;17.60;99.90
37938;DHT22;23763;48.130;11.602;2023-07-31T01:12:41;17.70;99.90
37938;DHT22;23763;48.130;11.602;2023-07-31T01:15:09;17.70;99.90
37938;DHT22;23763;48.130;11.602;2023-07-31T01:17:39;17.80;99.90
37938;DHT22;23763;48.130;11.602;2023-07-31T01:20:31;17.70;99.90
37938;DHT22;23763;48.130;11.602;2023-07-31T01:26:03;17.80;99.90
37938;DHT22;23763;48.130;11.602;2023-07-31T01:28:55;17.70;99.90
37938;DHT22;23763;48.130;11.602;2023-07-31T01:31:23;17.70;99.90
37938;DHT22;23763;48.130;11.602;2023-07-31T01:33:50;17.70;99.90
37938;DHT22;23763;48.130;11.602;2023-07-31T01:36:18;17.70;99.90
37938;DHT22;23763;48.130;11.602;2023-07-31T01:38:44;17.70;99.90
37938;DHT22;23763;48.130;11.602;2023-07-31T01:41:09;17.60;99.90
37938;DHT22;23763;48.130;11.602;2023-07-31T01:43:35;17.60;99.90
37938;DHT22;23763;48.130;11.602;2023-07-31T01:46:00;17.60;99.90
37938;DHT22;23763;48.130;11.602;2023-07-31T01:48:26;17.50;99.90
37938;DHT22;23763;48.130;11.602;2023-07-31T01:50:52;17.50;99.90
37938;DHT22;23763;48.130;11.602;2023-07-31T01:53:17;17.50;99.90
37938;DHT22;23763;48.130;11.602;2023-07-31T01:55:43;17.60;99.90
37938;DHT22;23763;48.130;11.602;2023-07-31T01:58:09;17.50;99.90
37938;DHT22;23763;48.130;11.602;2023-07-31T02:00:34;17.50;99.90
37938;DHT22;23763;48.130;11.602;2023-07-31T02:03:00;17.50;99.90
37938;DHT22;23763;48.130;11.602;2023-07-31T02:05:26;17.60;99.90
37938;DHT22;23763;48.130;11.602;2023-07-31T02:07:51;17.70;99.90
37938;DHT22;23763;48.130;11.602;2023-07-31T02:10:17;17.80;99.90
37938;DHT22;23763;48.130;11.602;2023-07-31T02:12:42;17.70;99.90
37938;DHT22;23763;48.130;11.602;2023-07-31T02:15:08;17.70;99.90
37938;DHT22;23763;48.130;11.602;2023-07-31T02:17:34;17.70;99.90
37938;DHT22;23763;48.130;11.602;2023-07-31T02:20:00;17.70;99.90
37938;DHT22;23763;48.130;11.602;2023-07-31T02:22:26;17.80;99.90
37938;DHT22;23763;48.130;11.602;2023-07-31T02:24:51;17.80;99.90
37938;DHT22;23763;48.130;11.602;2023-07-31T02:27:17;17.90;99.90
37938;DHT22;23763;48.130;11.602;2023-07-31T02:29:43;17.90;99.90
37938;DHT22;23763;48.130;11.602;2023-07-31T02:32:08;17.90;99.90
37938;DHT22;23763;48.130;11.602;2023-07-31T02:34:34;17.80;99.90
37938;DHT22;23763;48.130;11.602;2023-07-31T02:37:00;17.80;99.90
37938;DHT22;23763;48.130;11.602;2023-07-31T02:39:25;17.80;99.90
37938;DHT22;23763;48.130;11.602;2023-07-31T02:41:51;17.80;99.90
37938;DHT22;23763;48.130;11.602;2023-07-31T02:44:16;17.80;99.90
37938;DHT22;23763;48.130;11.602;2023-07-31T02:46:42;17.80;99.90
37938;DHT22;23763;48.130;11.602;2023-07-31T02:49:07;17.80;99.90
37938;DHT22;23763;48.130;11.602;2023-07-31T02:51:33;17.80;99.90
37938;DHT22;23763;48.130;11.602;2023-07-31T02:53:58;17.70;99.90
37938;DHT22;23763;48.130;11.602;2023-07-31T02:56:24;17.70;99.90
37938;DHT22;23763;48.130;11.602;2023-07-31T02:58:50;17.70;99.90
37938;DHT22;23763;48.130;11.602;2023-07-31T03:01:15;17.60;99.90
37938;DHT22;23763;48.130;11.602;2023-07-31T03:03:41;17.60;99.90
37938;DHT22;23763;48.130;11.602;2023-07-31T03:06:07;17.50;99.90
37938;DHT22;23763;48.130;11.602;2023-07-31T03:08:33;17.50;99.90
37938;DHT22;23763;48.130;11.602;2023-07-31T03:10:58;17.40;99.90
37938;DHT22;23763;48.130;11.602;2023-07-31T03:13:24;17.40;99.90
37938;DHT22;23763;48.130;11.602;2023-07-31T03:15:50;17.30;99.90
37938;DHT22;23763;48.130;11.602;2023-07-31T03:18:15;17.30;99.90
37938;DHT22;23763;48.130;11.602;2023-07-31T03:20:44;17.20;99.90
37938;DHT22;23763;48.130;11.602;2023-07-31T03:23:10;17.20;99.90
37938;DHT22;23763;48.130;11.602;2023-07-31T03:25:35;17.10;99.90
37938;DHT22;23763;48.130;11.602;2023-07-31T03:28:01;17.10;99.90
37938;DHT22;23763;48.130;11.602;2023-07-31T03:30:27;17.10;99.90
37938;DHT22;23763;48.130;11.602;2023-07-31T03:32:52;17.10;99.90
37938;DHT22;23763;48.130;11.602;2023-07-31T03:35:18;17.00;99.90
37938;DHT22;23763;48.130;11.602;2023-07-31T03:37:43;17.00;99.90
37938;DHT22;23763;48.130;11.602;2023-07-31T03:40:09;17.00;99.90
37938;DHT22;23763;48.130;11.602;2023-07-31T03:42:35;16.90;99.90
37938;DHT22;23763;48.130;11.602;2023-07-31T03:45:01;17.00;99.90
37938;DHT22;23763;48.130;11.602;2023-07-31T03:47:27;17.00;99.90
37938;DHT22;23763;48.130;11.602;2023-07-31T03:49:52;17.10;99.90
37938;DHT22;23763;48.130;11.602;2023-07-31T03:52:18;17.10;99.90
37938;DHT22;23763;48.130;11.602;2023-07-31T03:54:44;17.00;99.90
37938;DHT22;23763;48.130;11.602;2023-07-31T03:57:12;17.00;99.90
37938;DHT22;23763;48.130;11.602;2023-07-31T03:59:37;17.00;99.90
37938;DHT22;23763;48.130;11.602;2023-07-31T04:02:06;16.90;99.90
37938;DHT22;23763;48.130;11.602;2023-07-31T04:04:31;16.90;99.90
37938;DHT22;23763;48.130;11.602;2023-07-31T04:06:57;16.90;99.90
37938;DHT22;23763;48.130;11.602;2023-07-31T04:09:22;16.80;99.90
37938;DHT22;23763;48.130;11.602;2023-07-31T04:11:48;16.90;99.90
37938;DHT22;23763;48.130;11.602;2023-07-31T04:14:13;16.90;99.90
37938;DHT22;23763;48.130;11.602;2023-07-31T04:16:39;16.90;99.90
37938;DHT22;23763;48.130;11.602;2023-07-31T04:19:05;16.90;99.90
37938;DHT22;23763;48.130;11.602;2023-07-31T04:21:30;16.90;99.90
37938;DHT22;23763;48.130;11.602;2023-07-31T04:23:56;16.90;99.90
37938;DHT22;23763;48.130;11.602;2023-07-31T04:26:22;17.00;99.90
37938;DHT22;23763;48.130;11.602;2023-07-31T04:28:47;17.20;99.90
37938;DHT22;23763;48.130;11.602;2023-07-31T04:31:13;17.10;99.90
37938;DHT22;23763;48.130;11.602;2023-07-31T04:33:38;17.20;99.90
37938;DHT22;23763;48.130;11.602;2023-07-31T04:36:05;17.20;99.90
37938;DHT22;23763;48.130;11.602;2023-07-31T04:38:31;17.20;99.90
37938;DHT22;23763;48.130;11.602;2023-07-31T04:40:56;17.20;99.90
37938;DHT22;23763;48.130;11.602;2023-07-31T04:43:22;17.30;99.90
37938;DHT22;23763;48.130;11.602;2023-07-31T04:45:47;17.30;99.90
37938;DHT22;23763;48.130;11.602;2023-07-31T04:48:14;17.40;99.90
37938;DHT22;23763;48.130;11.602;2023-07-31T04:50:40;17.50;99.90
37938;DHT22;23763;48.130;11.602;2023-07-31T04:53:05;17.50;99.90
37938;DHT22;23763;48.130;11.602;2023-07-31T04:55:31;17.50;99.90
37938;DHT22;23763;48.130;11.602;2023-07-31T04:57:58;17.50;99.90
37938;DHT22;23763;48.130;11.602;2023-07-31T05:00:24;17.50;99.90
37938;DHT22;23763;48.130;11.602;2023-07-31T05:02:49;17.40;99.90
37938;DHT22;23763;48.130;11.602;2023-07-31T05:05:15;17.40;99.90
37938;DHT22;23763;48.130;11.602;2023-07-31T05:07:40;17.40;99.90
37938;DHT22;23763;48.130;11.602;2023-07-31T05:10:06;17.50;99.90
37938;DHT22;23763;48.130;11.602;2023-07-31T05:12:32;17.60;99.90
37938;DHT22;23763;48.130;11.602;2023-07-31T05:14:57;17.80;99.90
37938;DHT22;23763;48.130;11.602;2023-07-31T05:17:23;17.80;99.90
37938;DHT22;23763;48.130;11.602;2023-07-31T05:19:48;17.80;99.90
37938;DHT22;23763;48.130;11.602;2023-07-31T05:22:14;17.90;99.90
37938;DHT22;23763;48.130;11.602;2023-07-31T05:24:40;18.10;99.90
37938;DHT22;23763;48.130;11.602;2023-07-31T05:27:06;18.20;99.90
37938;DHT22;23763;48.130;11.602;2023-07-31T05:29:31;18.40;99.90
37938;DHT22;23763;48.130;11.602;2023-07-31T05:31:57;18.50;99.90
37938;DHT22;23763;48.130;11.602;2023-07-31T05:34:22;18.60;99.90
37938;DHT22;23763;48.130;11.602;2023-07-31T05:36:48;18.70;99.90
37938;DHT22;23763;48.130;11.602;2023-07-31T05:39:14;18.90;99.90
37938;DHT22;23763;48.130;11.602;2023-07-31T05:41:39;19.10;99.90
37938;DHT22;23763;48.130;11.602;2023-07-31T05:44:05;19.50;99.90
37938;DHT22;23763;48.130;11.602;2023-07-31T05:46:30;19.80;99.90
37938;DHT22;23763;48.130;11.602;2023-07-31T05:48:56;19.70;99.90
37938;DHT22;23763;48.130;11.602;2023-07-31T05:51:22;20.00;99.90
37938;DHT22;23763;48.130;11.602;2023-07-31T05:53:47;20.10;99.90
37938;DHT22;23763;48.130;11.602;2023-07-31T05:56:13;20.40;99.90
37938;DHT22;23763;48.130;11.602;2023-07-31T05:58:38;20.40;99.90
37938;DHT22;23763;48.130;11.602;2023-07-31T06:01:04;20.50;99.90
37938;DHT22;23763;48.130;11.602;2023-07-31T06:03:30;20.30;99.90
37938;DHT22;23763;48.130;11.602;2023-07-31T06:05:55;20.50;99.90
37938;DHT22;23763;48.130;11.602;2023-07-31T06:08:21;20.70;99.90
37938;DHT22;23763;48.130;11.602;2023-07-31T06:10:47;20.70;99.90
37938;DHT22;23763;48.130;11.602;2023-07-31T06:13:12;20.90;99.90
37938;DHT22;23763;48.130;11.602;2023-07-31T06:15:38;21.10;99.90
37938;DHT22;23763;48.130;11.602;2023-07-31T06:18:03;21.20;99.90
37938;DHT22;23763;48.130;11.602;2023-07-31T06:20:32;21.30;99.90
37938;DHT22;23763;48.130;11.602;2023-07-31T06:22:58;21.30;99.90
37938;DHT22;23763;48.130;11.602;2023-07-31T06:25:24;21.40;99.90
37938;DHT22;23763;48.130;11.602;2023-07-31T06:27:49;21.60;99.90
37938;DHT22;23763;48.130;11.602;2023-07-31T06:30:15;21.50;99.90
37938;DHT22;23763;48.130;11.602;2023-07-31T06:32:40;21.70;99.90
37938;DHT22;23763;48.130;11.602;2023-07-31T06:35:06;21.70;99.90
37938;DHT22;23763;48.130;11.602;2023-07-31T06:37:32;21.60;99.90
37938;DHT22;23763;48.130;11.602;2023-07-31T06:39:57;21.40;99.90
37938;DHT22;23763;48.130;11.602;2023-07-31T06:42:23;21.50;99.90
37938;DHT22;23763;48.130;11.602;2023-07-31T06:44:49;21.40;99.90
37938;DHT22;23763;48.130;11.602;2023-07-31T06:47:14;21.20;99.90
37938;DHT22;23763;48.130;11.602;2023-07-31T06:49:40;21.20;99.90
37938;DHT22;23763;48.130;11.602;2023-07-31T06:52:06;21.40;99.90
37938;DHT22;23763;48.130;11.602;2023-07-31T06:54:31;21.30;99.90
37938;DHT22;23763;48.130;11.602;2023-07-31T06:56:57;21.50;99.90
37938;DHT22;23763;48.130;11.602;2023-07-31T06:59:23;21.40;99.90
37938;DHT22;23763;48.130;11.602;2023-07-31T07:01:48;21.60;99.90
37938;DHT22;23763;48.130;11.602;2023-07-31T07:04:14;21.60;99.90
37938;DHT22;23763;48.130;11.602;2023-07-31T07:06:40;21.60;99.90
37938;DHT22;23763;48.130;11.602;2023-07-31T07:09:05;21.90;99.90
37938;DHT22;23763;48.130;11.602;2023-07-31T07:11:32;22.10;99.90
37938;DHT22;23763;48.130;11.602;2023-07-31T07:13:57;22.20;99.90
37938;DHT22;23763;48.130;11.602;2023-07-31T07:16:23;22.00;99.90
37938;DHT22;23763;48.130;11.602;2023-07-31T07:18:48;22.00;99.90
37938;DHT22;23763;48.130;11.602;2023-07-31T07:21:14;22.10;99.90
37938;DHT22;23763;48.130;11.602;2023-07-31T07:23:42;22.70;99.90
37938;DHT22;23763;48.130;11.602;2023-07-31T07:26:08;22.90;99.90
37938;DHT22;23763;48.130;11.602;2023-07-31T07:28:33;23.10;99.90
37938;DHT22;23763;48.130;11.602;2023-07-31T07:30:59;23.50;99.90
37938;DHT22;23763;48.130;11.602;2023-07-31T07:33:24;24.00;99.90
37938;DHT22;23763;48.130;11.602;2023-07-31T07:35:50;24.20;99.90
37938;DHT22;23763;48.130;11.602;2023-07-31T07:38:15;24.10;99.90
37938;DHT22;23763;48.130;11.602;2023-07-31T07:40:41;24.00;99.90
37938;DHT22;23763;48.130;11.602;2023-07-31T07:43:07;23.80;99.90
37938;DHT22;23763;48.130;11.602;2023-07-31T07:45:33;23.80;99.90
37938;DHT22;23763;48.130;11.602;2023-07-31T07:47:58;23.80;99.90
37938;DHT22;23763;48.130;11.602;2023-07-31T07:50:24;24.20;99.90
37938;DHT22;23763;48.130;11.602;2023-07-31T07:52:50;25.30;97.80
37938;DHT22;23763;48.130;11.602;2023-07-31T07:55:15;26.70;96.00
37938;DHT22;23763;48.130;11.602;2023-07-31T07:57:41;27.30;94.10
37938;DHT22;23763;48.130;11.602;2023-07-31T08:00:07;27.40;93.80
37938;DHT22;23763;48.130;11.602;2023-07-31T08:02:33;27.30;93.30
37938;DHT22;23763;48.130;11.602;2023-07-31T08:04:58;26.90;93.40
37938;DHT22;23763;48.130;11.602;2023-07-31T08:07:24;27.40;92.50
37938;DHT22;23763;48.130;11.602;2023-07-31T08:09:49;28.10;92.10
37938;DHT22;23763;48.130;11.602;2023-07-31T08:12:15;29.20;90.20
37938;DHT22;23763;48.130;11.602;2023-07-31T08:14:41;29.60;88.20
37938;DHT22;23763;48.130;11.602;2023-07-31T08:17:06;30.10;86.20
37938;DHT22;23763;48.130;11.602;2023-07-31T08:19:32;32.00;80.20
37938;DHT22;23763;48.130;11.602;2023-07-31T08:21:57;32.90;77.90
37938;DHT22;23763;48.130;11.602;2023-07-31T08:24:23;32.10;75.00
37938;DHT22;23763;48.130;11.602;2023-07-31T08:26:49;31.60;76.90
37938;DHT22;23763;48.130;11.602;2023-07-31T08:29:14;31.00;77.90
37938;DHT22;23763;48.130;11.602;2023-07-31T08:31:40;30.90;76.50
37938;DHT22;23763;48.130;11.602;2023-07-31T08:34:05;29.70;78.30
37938;DHT22;23763;48.130;11.602;2023-07-31T08:36:31;28.00;81.80
37938;DHT22;23763;48.130;11.602;2023-07-31T08:38:56;27.10;85.00
37938;DHT22;23763;48.130;11.602;2023-07-31T08:41:22;26.00;88.20
37938;DHT22;23763;48.130;11.602;2023-07-31T08:43:49;25.50;89.60
37938;DHT22;23763;48.130;11.602;2023-07-31T08:46:15;24.90;90.00
37938;DHT22;23763;48.130;11.602;2023-07-31T08:48:42;24.80;90.60
37938;DHT22;23763;48.130;11.602;2023-07-31T08:51:08;24.40;90.80
37938;DHT22;23763;48.130;11.602;2023-07-31T08:53:34;23.90;91.70
37938;DHT22;23763;48.130;11.602;2023-07-31T08:56:00;23.70;92.10
37938;DHT22;23763;48.130;11.602;2023-07-31T08:58:31;23.50;92.60
37938;DHT22;23763;48.130;11.602;2023-07-31T09:00:58;23.20;93.10
37938;DHT22;23763;48.130;11.602;2023-07-31T09:03:26;23.00;93.50
37938;DHT22;23763;48.130;11.602;2023-07-31T09:05:52;22.50;94.20
37938;DHT22;23763;48.130;11.602;2023-07-31T09:08:21;22.50;95.30
37938;DHT22;23763;48.130;11.602;2023-07-31T09:10:48;22.60;95.70
37938;DHT22;23763;48.130;11.602;2023-07-31T09:13:15;22.80;95.10
37938;DHT22;23763;48.130;11.602;2023-07-31T09:15:44;23.00;94.60
37938;DHT22;23763;48.130;11.602;2023-07-31T09:18:10;23.40;94.00
37938;DHT22;23763;48.130;11.602;2023-07-31T09:20:36;23.70;93.50
37938;DHT22;23763;48.130;11.602;2023-07-31T09:23:08;24.10;92.90
37938;DHT22;23763;48.130;11.602;2023-07-31T09:25:34;24.00;92.60
37938;DHT22;23763;48.130;11.602;2023-07-31T09:28:05;24.10;92.40
37938;DHT22;23763;48.130;11.602;2023-07-31T09:30:47;24.30;92.30
37938;DHT22;23763;48.130;11.602;2023-07-31T09:33:13;24.60;92.30
37938;DHT22;23763;48.130;11.602;2023-07-31T09:35:39;24.70;92.00
37938;DHT22;23763;48.130;11.602;2023-07-31T09:38:08;24.60;91.40
37938;DHT22;23763;48.130;11.602;2023-07-31T09:40:52;24.70;91.60
37938;DHT22;23763;48.130;11.602;2023-07-31T09:43:19;24.80;91.30
37938;DHT22;23763;48.130;11.602;2023-07-31T09:45:46;24.80;91.30
37938;DHT22;23763;48.130;11.602;2023-07-31T09:48:13;24.90;91.30
37938;DHT22;23763;48.130;11.602;2023-07-31T09:50:42;25.30;90.90
37938;DHT22;23763;48.130;11.602;2023-07-31T09:53:09;26.00;91.00
37938;DHT22;23763;48.130;11.602;2023-07-31T09:55:35;26.00;90.10
37938;DHT22;23763;48.130;11.602;2023-07-31T09:58:04;25.90;90.30
37938;DHT22;23763;48.130;11.602;2023-07-31T10:00:31;25.80;90.00
37938;DHT22;23763;48.130;11.602;2023-07-31T10:03:01;25.60;90.20
37938;DHT22;23763;48.130;11.602;2023-07-31T10:08:02;25.40;91.10
37938;DHT22;23763;48.130;11.602;2023-07-31T10:10:28;25.40;90.60
37938;DHT22;23763;48.130;11.602;2023-07-31T10:12:55;25.10;91.10
37938;DHT22;23763;48.130;11.602;2023-07-31T10:15:21;25.00;91.30
37938;DHT22;23763;48.130;11.602;2023-07-31T10:17:48;25.00;91.50
37938;DHT22;23763;48.130;11.602;2023-07-31T10:20:15;25.20;91.10
37938;DHT22;23763;48.130;11.602;2023-07-31T10:22:44;25.50;90.80
37938;DHT22;23763;48.130;11.602;2023-07-31T10:25:15;25.30;90.40
37938;DHT22;23763;48.130;11.602;2023-07-31T10:27:41;25.20;90.00
37938;DHT22;23763;48.130;11.602;2023-07-31T10:30:09;25.10;90.30
37938;DHT22;23763;48.130;11.602;2023-07-31T10:32:38;24.80;90.30
37938;DHT22;23763;48.130;11.602;2023-07-31T10:35:04;24.60;90.10
37938;DHT22;23763;48.130;11.602;2023-07-31T10:40:00;24.50;90.30
37938;DHT22;23763;48.130;11.602;2023-07-31T10:42:31;24.60;90.40
37938;DHT22;23763;48.130;11.602;2023-07-31T10:44:58;24.80;90.40
37938;DHT22;23763;48.130;11.602;2023-07-31T10:47:25;24.80;90.10
37938;DHT22;23763;48.130;11.602;2023-07-31T10:49:50;25.00;90.00
37938;DHT22;23763;48.130;11.602;2023-07-31T10:52:20;25.10;89.80
37938;DHT22;23763;48.130;11.602;2023-07-31T10:54:49;25.10;89.30
37938;DHT22;23763;48.130;11.602;2023-07-31T10:57:22;25.00;89.90
37938;DHT22;23763;48.130;11.602;2023-07-31T10:59:50;25.00;89.80
37938;DHT22;23763;48.130;11.602;2023-07-31T11:02:26;24.90;89.70
37938;DHT22;23763;48.130;11.602;2023-07-31T11:05:09;25.00;88.90
37938;DHT22;23763;48.130;11.602;2023-07-31T11:07:48;24.90;88.10
37938;DHT22;23763;48.130;11.602;2023-07-31T11:10:18;24.90;88.70
37938;DHT22;23763;48.130;11.602;2023-07-31T11:12:47;24.60;87.00
37938;DHT22;23763;48.130;11.602;2023-07-31T11:15:13;24.50;88.70
37938;DHT22;23763;48.130;11.602;2023-07-31T11:17:39;24.20;90.00
37938;DHT22;23763;48.130;11.602;2023-07-31T11:20:06;24.20;90.00
37938;DHT22;23763;48.130;11.602;2023-07-31T11:22:34;23.90;90.50
37938;DHT22;23763;48.130;11.602;2023-07-31T11:25:02;23.70;90.90
37938;DHT22;23763;48.130;11.602;2023-07-31T11:27:28;23.60;91.10
37938;DHT22;23763;48.130;11.602;2023-07-31T11:30:00;23.90;90.90
37938;DHT22;23763;48.130;11.602;2023-07-31T11:32:27;24.00;90.60
37938;DHT22;23763;48.130;11.602;2023-07-31T11:34:53;24.10;90.60
37938;DHT22;23763;48.130;11.602;2023-07-31T11:37:19;24.40;90.60
37938;DHT22;23763;48.130;11.602;2023-07-31T11:39:59;24.50;89.30
37938;DHT22;23763;48.130;11.602;2023-07-31T11:42:25;24.60;90.00
37938;DHT22;23763;48.130;11.602;2023-07-31T11:44:50;24.60;89.10
37938;DHT22;23763;48.130;11.602;2023-07-31T11:47:16;24.60;89.20
37938;DHT22;23763;48.130;11.602;2023-07-31T11:49:43;24.60;89.30
37938;DHT22;23763;48.130;11.602;2023-07-31T11:52:09;24.70;89.40
37938;DHT22;23763;48.130;11.602;2023-07-31T11:54:35;24.60;90.00
37938;DHT22;23763;48.130;11.602;2023-07-31T11:57:01;24.50;90.10
37938;DHT22;23763;48.130;11.602;2023-07-31T11:59:27;24.40;90.10
37938;DHT22;23763;48.130;11.602;2023-07-31T12:02:27;24.30;90.40
37938;DHT22;23763;48.130;11.602;2023-07-31T12:04:53;24.30;90.40
37938;DHT22;23763;48.130;11.602;2023-07-31T12:07:18;24.30;90.40
37938;DHT22;23763;48.130;11.602;2023-07-31T12:09:56;24.40;90.60
37938;DHT22;23763;48.130;11.602;2023-07-31T12:12:23;24.50;90.60
37938;DHT22;23763;48.130;11.602;2023-07-31T12:14:49;24.50;90.70
37938;DHT22;23763;48.130;11.602;2023-07-31T12:17:17;24.70;90.80
37938;DHT22;23763;48.130;11.602;2023-07-31T12:19:44;24.60;89.90
37938;DHT22;23763;48.130;11.602;2023-07-31T12:22:14;24.50;88.70
37938;DHT22;23763;48.130;11.602;2023-07-31T12:24:42;24.60;89.20
37938;DHT22;23763;48.130;11.602;2023-07-31T12:27:14;24.70;88.60
37938;DHT22;23763;48.130;11.602;2023-07-31T12:29:42;24.90;87.70
37938;DHT22;23763;48.130;11.602;2023-07-31T12:32:24;24.90;88.00
37938;DHT22;23763;48.130;11.602;2023-07-31T12:34:51;25.10;86.40
37938;DHT22;23763;48.130;11.602;2023-07-31T12:37:17;25.60;86.50
37938;DHT22;23763;48.130;11.602;2023-07-31T12:39:43;25.90;84.70
37938;DHT22;23763;48.130;11.602;2023-07-31T12:42:08;26.00;84.10
37938;DHT22;23763;48.130;11.602;2023-07-31T12:44:34;26.00;84.60
37938;DHT22;23763;48.130;11.602;2023-07-31T12:46:59;25.90;84.10
37938;DHT22;23763;48.130;11.602;2023-07-31T12:49:25;25.90;85.20
37938;DHT22;23763;48.130;11.602;2023-07-31T12:51:50;25.90;84.80
37938;DHT22;23763;48.130;11.602;2023-07-31T12:54:16;25.80;84.80
37938;DHT22;23763;48.130;11.602;2023-07-31T12:56:42;25.70;84.80
37938;DHT22;23763;48.130;11.602;2023-07-31T12:59:07;25.60;86.30
37938;DHT22;23763;48.130;11.602;2023-07-31T13:01:33;25.60;85.80
37938;DHT22;23763;48.130;11.602;2023-07-31T13:03:58;25.60;85.30
37938;DHT22;23763;48.130;11.602;2023-07-31T13:06:25;25.50;85.40
37938;DHT22;23763;48.130;11.602;2023-07-31T13:08:51;25.40;85.70
37938;DHT22;23763;48.130;11.602;2023-07-31T13:11:16;25.40;85.80
37938;DHT22;23763;48.130;11.602;2023-07-31T13:13:42;25.50;86.00
37938;DHT22;23763;48.130;11.602;2023-07-31T13:16:08;25.70;85.60
37938;DHT22;23763;48.130;11.602;2023-07-31T13:18:33;25.90;85.20
37938;DHT22;23763;48.130;11.602;2023-07-31T13:20:59;25.90;84.50
37938;DHT22;23763;48.130;11.602;2023-07-31T13:23:24;25.80;84.70
37938;DHT22;23763;48.130;11.602;2023-07-31T13:25:50;25.60;85.30
37938;DHT22;23763;48.130;11.602;2023-07-31T13:28:15;25.70;86.10
37938;DHT22;23763;48.130;11.602;2023-07-31T13:30:41;25.70;84.80
37938;DHT22;23763;48.130;11.602;2023-07-31T13:33:07;25.80;84.70
37938;DHT22;23763;48.130;11.602;2023-07-31T13:35:32;25.60;84.90
37938;DHT22;23763;48.130;11.602;2023-07-31T13:37:58;25.90;84.50
37938;DHT22;23763;48.130;11.602;2023-07-31T13:40:23;26.00;83.80
37938;DHT22;23763;48.130;11.602;2023-07-31T13:42:49;25.90;82.90
37938;DHT22;23763;48.130;11.602;2023-07-31T13:45:15;25.80;83.20
37938;DHT22;23763;48.130;11.602;2023-07-31T13:47:40;25.60;84.70
37938;DHT22;23763;48.130;11.602;2023-07-31T13:50:06;25.50;85.60
37938;DHT22;23763;48.130;11.602;2023-07-31T13:52:32;25.50;84.70
37938;DHT22;23763;48.130;11.602;2023-07-31T13:54:57;25.40;84.50
37938;DHT22;23763;48.130;11.602;2023-07-31T13:57:23;25.40;85.20
37938;DHT22;23763;48.130;11.602;2023-07-31T13:59:49;25.40;86.50
37938;DHT22;23763;48.130;11.602;2023-07-31T14:02:14;25.40;86.50
37938;DHT22;23763;48.130;11.602;2023-07-31T14:04:40;25.50;86.80
37938;DHT22;23763;48.130;11.602;2023-07-31T14:07:06;25.30;86.40
37938;DHT22;23763;48.130;11.602;2023-07-31T14:09:31;25.20;86.60
37938;DHT22;23763;48.130;11.602;2023-07-31T14:11:57;25.20;87.10
37938;DHT22;23763;48.130;11.602;2023-07-31T14:14:23;25.30;87.20
37938;DHT22;23763;48.130;11.602;2023-07-31T14:16:48;25.60;86.70
37938;DHT22;23763;48.130;11.602;2023-07-31T14:19:14;25.90;86.30
37938;DHT22;23763;48.130;11.602;2023-07-31T14:21:39;25.90;86.10
37938;DHT22;23763;48.130;11.602;2023-07-31T14:24:05;25.90;84.60
37938;DHT22;23763;48.130;11.602;2023-07-31T14:26:31;25.60;84.70
37938;DHT22;23763;48.130;11.602;2023-07-31T14:28:57;25.40;82.70
37938;DHT22;23763;48.130;11.602;2023-07-31T14:31:22;25.10;83.60
37938;DHT22;23763;48.130;11.602;2023-07-31T14:33:48;25.00;84.10
37938;DHT22;23763;48.130;11.602;2023-07-31T14:36:14;25.00;85.00
37938;DHT22;23763;48.130;11.602;2023-07-31T14:38:39;25.20;84.70
37938;DHT22;23763;48.130;11.602;2023-07-31T14:41:05;25.40;85.10
37938;DHT22;23763;48.130;11.602;2023-07-31T14:43:30;25.50;85.50
37938;DHT22;23763;48.130;11.602;2023-07-31T14:45:57;25.80;85.90
37938;DHT22;23763;48.130;11.602;2023-07-31T14:48:25;25.80;84.50
37938;DHT22;23763;48.130;11.602;2023-07-31T14:50:51;25.90;84.70
37938;DHT22;23763;48.130;11.602;2023-07-31T14:53:16;26.10;84.40
37938;DHT22;23763;48.130;11.602;2023-07-31T14:55:42;26.20;84.00
37938;DHT22;23763;48.130;11.602;2023-07-31T14:58:07;26.30;84.00
37938;DHT22;23763;48.130;11.602;2023-07-31T15:00:33;26.10;84.50
37938;DHT22;23763;48.130;11.602;2023-07-31T15:02:58;26.00;84.60
37938;DHT22;23763;48.130;11.602;2023-07-31T15:05:24;25.90;85.00
37938;DHT22;23763;48.130;11.602;2023-07-31T15:07:50;26.00;85.20
37938;DHT22;23763;48.130;11.602;2023-07-31T15:10:15;25.90;83.90
37938;DHT22;23763;48.130;11.602;2023-07-31T15:12:42;25.90;84.50
37938;DHT22;23763;48.130;11.602;2023-07-31T15:15:08;26.10;84.90
37938;DHT22;23763;48.130;11.602;2023-07-31T15:17:33;26.00;83.00
37938;DHT22;23763;48.130;11.602;2023-07-31T15:19:59;25.90;83.60